sensor_id;sensor_type;location;lat;lon;timestamp;pressure;altitude;pressure_sealevel;temperature;humidity
31357;BME280;60001;48.404;11.738;2023-06-26T00:01:23;96370.72;;;20.35;54.81
31357;BME280;60001;48.404;11.738;2023-06-26T00:02:54;96358.28;;;20.31;54.96
31357;BME280;60001;48.404;11.738;2023-06-26T00:04:26;96362.34;;;20.28;54.95
31357;BME280;60001;48.404;11.738;2023-06-26T00:05:57;96360.97;;;20.39;54.11
31357;BME280;60001;48.404;11.738;2023-06-26T00:07:31;96356.72;;;20.38;54.38
31357;BME280;60001;48.404;11.738;2023-06-26T00:09:04;96350.38;;;20.34;54.51
31357;BME280;60001;48.404;11.738;2023-06-26T00:10:36;96363.97;;;20.38;54.11
31357;BME280;60001;48.404;11.738;2023-06-26T00:12:09;96365.53;;;20.39;54.16
31357;BME280;60001;48.404;11.738;2023-06-26T00:13:40;96366.56;;;20.51;54.29
31357;BME280;60001;48.404;11.738;2023-06-26T00:15:12;96355.59;;;20.39;54.51
31357;BME280;60001;48.404;11.738;2023-06-26T00:16:44;96358.75;;;20.41;54.62
31357;BME280;60001;48.404;11.738;2023-06-26T00:18:15;96362.59;;;20.49;54.50
31357;BME280;60001;48.404;11.738;2023-06-26T00:19:47;96357.00;;;20.37;54.62
31357;BME280;60001;48.404;11.738;2023-06-26T00:21:19;96347.84;;;20.29;55.06
31357;BME280;60001;48.404;11.738;2023-06-26T00:22:51;96355.88;;;20.29;55.51
31357;BME280;60001;48.404;11.738;2023-06-26T00:24:24;96356.84;;;20.42;54.68
31357;BME280;60001;48.404;11.738;2023-06-26T00:25:55;96360.75;;;20.18;55.17
31357;BME280;60001;48.404;11.738;2023-06-26T00:27:28;96360.75;;;20.18;55.12
31357;BME280;60001;48.404;11.738;2023-06-26T00:29:00;96355.72;;;20.17;55.14
31357;BME280;60001;48.404;11.738;2023-06-26T00:30:32;96355.38;;;20.10;55.56
31357;BME280;60001;48.404;11.738;2023-06-26T00:32:04;96351.06;;;19.91;56.14
31357;BME280;60001;48.404;11.738;2023-06-26T00:33:36;96364.50;;;20.09;55.57
31357;BME280;60001;48.404;11.738;2023-06-26T00:35:08;96363.72;;;20.08;56.02
31357;BME280;60001;48.404;11.738;2023-06-26T00:36:39;96356.63;;;20.12;56.07
31357;BME280;60001;48.404;11.738;2023-06-26T00:38:13;96362.00;;;20.12;55.12
31357;BME280;60001;48.404;11.738;2023-06-26T00:39:46;96362.13;;;20.07;55.35
31357;BME280;60001;48.404;11.738;2023-06-26T00:41:18;96365.16;;;20.14;55.44
31357;BME280;60001;48.404;11.738;2023-06-26T00:42:51;96357.41;;;20.04;56.02
31357;BME280;60001;48.404;11.738;2023-06-26T00:44:23;96360.75;;;20.10;55.42
31357;BME280;60001;48.404;11.738;2023-06-26T00:45:55;96363.25;;;20.06;55.51
31357;BME280;60001;48.404;11.738;2023-06-26T00:47:27;96359.75;;;19.97;55.81
31357;BME280;60001;48.404;11.738;2023-06-26T00:49:00;96357.34;;;19.95;56.08
31357;BME280;60001;48.404;11.738;2023-06-26T00:50:34;96360.66;;;19.92;56.61
31357;BME280;60001;48.404;11.738;2023-06-26T00:52:06;96351.50;;;19.85;56.11
31357;BME280;60001;48.404;11.738;2023-06-26T00:53:37;96358.63;;;19.89;56.14
31357;BME280;60001;48.404;11.738;2023-06-26T00:55:09;96363.22;;;19.97;55.61
31357;BME280;60001;48.404;11.738;2023-06-26T00:56:42;96363.47;;;19.87;56.31
31357;BME280;60001;48.404;11.738;2023-06-26T00:58:15;96362.25;;;19.93;56.43
31357;BME280;60001;48.404;11.738;2023-06-26T00:59:47;96347.75;;;19.94;55.80
31357;BME280;60001;48.404;11.738;2023-06-26T01:01:19;96356.31;;;20.05;55.68
31357;BME280;60001;48.404;11.738;2023-06-26T01:02:52;96358.66;;;20.07;55.08
31357;BME280;60001;48.404;11.738;2023-06-26T01:04:23;96360.34;;;19.94;55.76
31357;BME280;60001;48.404;11.738;2023-06-26T01:05:59;96350.75;;;20.02;55.34
31357;BME280;60001;48.404;11.738;2023-06-26T01:07:32;96352.03;;;20.04;54.78
31357;BME280;60001;48.404;11.738;2023-06-26T01:09:07;96355.44;;;19.87;55.91
31357;BME280;60001;48.404;11.738;2023-06-26T01:10:39;96356.84;;;19.85;55.79
31357;BME280;60001;48.404;11.738;2023-06-26T01:12:11;96351.31;;;19.81;55.33
31357;BME280;60001;48.404;11.738;2023-06-26T01:13:43;96356.38;;;19.83;55.22
31357;BME280;60001;48.404;11.738;2023-06-26T01:15:15;96360.78;;;19.87;54.62
31357;BME280;60001;48.404;11.738;2023-06-26T01:16:49;96340.25;;;19.74;55.13
31357;BME280;60001;48.404;11.738;2023-06-26T01:18:23;96354.63;;;19.78;54.85
31357;BME280;60001;48.404;11.738;2023-06-26T01:19:54;96356.28;;;19.65;55.63
31357;BME280;60001;48.404;11.738;2023-06-26T01:21:28;96351.38;;;19.59;55.32
31357;BME280;60001;48.404;11.738;2023-06-26T01:23:07;96358.31;;;19.60;55.58
31357;BME280;60001;48.404;11.738;2023-06-26T01:24:48;96352.50;;;19.66;54.91
31357;BME280;60001;48.404;11.738;2023-06-26T01:26:29;96359.00;;;19.43;55.36
31357;BME280;60001;48.404;11.738;2023-06-26T01:28:01;96347.06;;;19.49;55.84
31357;BME280;60001;48.404;11.738;2023-06-26T01:29:34;96360.16;;;19.28;55.75
31357;BME280;60001;48.404;11.738;2023-06-26T01:31:07;96320.63;;;19.03;57.14
31357;BME280;60001;48.404;11.738;2023-06-26T01:32:40;96354.50;;;19.30;56.42
31357;BME280;60001;48.404;11.738;2023-06-26T01:34:12;96351.22;;;19.10;56.73
31357;BME280;60001;48.404;11.738;2023-06-26T01:35:44;96346.38;;;19.12;57.26
31357;BME280;60001;48.404;11.738;2023-06-26T01:37:17;96351.25;;;19.19;57.61
31357;BME280;60001;48.404;11.738;2023-06-26T01:38:49;96344.13;;;19.06;57.68
31357;BME280;60001;48.404;11.738;2023-06-26T01:40:21;96352.88;;;19.20;57.58
31357;BME280;60001;48.404;11.738;2023-06-26T01:41:54;96352.38;;;19.18;57.15
31357;BME280;60001;48.404;11.738;2023-06-26T01:43:29;96349.56;;;19.23;57.02
31357;BME280;60001;48.404;11.738;2023-06-26T01:45:09;96352.72;;;19.25;57.68
31357;BME280;60001;48.404;11.738;2023-06-26T01:46:53;96355.72;;;19.24;56.93
31357;BME280;60001;48.404;11.738;2023-06-26T01:48:33;96349.22;;;19.16;57.87
31357;BME280;60001;48.404;11.738;2023-06-26T01:50:11;96345.88;;;19.10;57.83
31357;BME280;60001;48.404;11.738;2023-06-26T01:51:49;96351.63;;;19.04;58.49
31357;BME280;60001;48.404;11.738;2023-06-26T01:53:25;96350.31;;;19.15;57.64
31357;BME280;60001;48.404;11.738;2023-06-26T01:55:07;96351.09;;;18.93;58.98
31357;BME280;60001;48.404;11.738;2023-06-26T01:56:43;96350.22;;;18.84;58.57
31357;BME280;60001;48.404;11.738;2023-06-26T01:58:22;96353.16;;;18.96;58.85
31357;BME280;60001;48.404;11.738;2023-06-26T01:59:56;96352.44;;;19.04;58.07
31357;BME280;60001;48.404;11.738;2023-06-26T02:01:29;96350.91;;;19.12;58.29
31357;BME280;60001;48.404;11.738;2023-06-26T02:03:01;96353.09;;;19.10;57.87
31357;BME280;60001;48.404;11.738;2023-06-26T02:04:33;96350.44;;;19.10;58.48
31357;BME280;60001;48.404;11.738;2023-06-26T02:06:05;96353.72;;;19.29;57.42
31357;BME280;60001;48.404;11.738;2023-06-26T02:07:37;96353.31;;;19.44;56.86
31357;BME280;60001;48.404;11.738;2023-06-26T02:09:08;96353.09;;;19.10;58.47
31357;BME280;60001;48.404;11.738;2023-06-26T02:10:39;96354.34;;;19.26;58.29
31357;BME280;60001;48.404;11.738;2023-06-26T02:12:11;96351.16;;;19.02;58.72
31357;BME280;60001;48.404;11.738;2023-06-26T02:13:44;96344.53;;;19.22;58.39
31357;BME280;60001;48.404;11.738;2023-06-26T02:15:16;96357.97;;;19.08;58.26
31357;BME280;60001;48.404;11.738;2023-06-26T02:16:47;96353.09;;;19.10;58.46
31357;BME280;60001;48.404;11.738;2023-06-26T02:18:18;96350.19;;;18.98;58.77
31357;BME280;60001;48.404;11.738;2023-06-26T02:19:51;96345.06;;;19.10;58.63
31357;BME280;60001;48.404;11.738;2023-06-26T02:21:22;96351.03;;;19.07;58.17
31357;BME280;60001;48.404;11.738;2023-06-26T02:22:54;96354.50;;;19.07;59.17
31357;BME280;60001;48.404;11.738;2023-06-26T02:24:27;96351.28;;;18.97;58.77
31357;BME280;60001;48.404;11.738;2023-06-26T02:26:00;96360.66;;;19.08;58.60
31357;BME280;60001;48.404;11.738;2023-06-26T02:27:32;96359.75;;;19.12;58.04
31357;BME280;60001;48.404;11.738;2023-06-26T02:29:04;96356.25;;;19.12;57.65
31357;BME280;60001;48.404;11.738;2023-06-26T02:30:36;96359.31;;;18.97;58.43
31357;BME280;60001;48.404;11.738;2023-06-26T02:32:08;96351.47;;;19.00;57.90
31357;BME280;60001;48.404;11.738;2023-06-26T02:33:39;96346.53;;;18.71;58.14
31357;BME280;60001;48.404;11.738;2023-06-26T02:35:11;96358.88;;;18.81;59.04
31357;BME280;60001;48.404;11.738;2023-06-26T02:36:42;96360.22;;;18.92;58.57
31357;BME280;60001;48.404;11.738;2023-06-26T02:38:13;96357.31;;;19.02;57.71
31357;BME280;60001;48.404;11.738;2023-06-26T02:39:45;96362.84;;;19.06;57.23
31357;BME280;60001;48.404;11.738;2023-06-26T02:41:15;96367.69;;;18.81;57.73
31357;BME280;60001;48.404;11.738;2023-06-26T02:42:47;96361.06;;;18.79;57.93
31357;BME280;60001;48.404;11.738;2023-06-26T02:44:20;96366.53;;;18.60;59.10
31357;BME280;60001;48.404;11.738;2023-06-26T02:45:52;96349.00;;;18.54;58.63
31357;BME280;60001;48.404;11.738;2023-06-26T02:47:24;96355.72;;;18.65;58.86
31357;BME280;60001;48.404;11.738;2023-06-26T02:48:56;96353.63;;;18.62;58.77
31357;BME280;60001;48.404;11.738;2023-06-26T02:50:28;96350.78;;;18.72;58.41
31357;BME280;60001;48.404;11.738;2023-06-26T02:51:58;96347.97;;;18.77;57.94
31357;BME280;60001;48.404;11.738;2023-06-26T02:53:31;96354.16;;;18.64;58.96
31357;BME280;60001;48.404;11.738;2023-06-26T02:55:04;96356.31;;;18.76;58.09
31357;BME280;60001;48.404;11.738;2023-06-26T02:56:35;96359.28;;;18.74;58.84
31357;BME280;60001;48.404;11.738;2023-06-26T02:58:06;96354.72;;;18.61;59.03
31357;BME280;60001;48.404;11.738;2023-06-26T02:59:40;96355.66;;;18.93;58.32
31357;BME280;60001;48.404;11.738;2023-06-26T03:01:12;96355.63;;;18.70;58.96
31357;BME280;60001;48.404;11.738;2023-06-26T03:02:43;96351.78;;;18.49;59.11
31357;BME280;60001;48.404;11.738;2023-06-26T03:04:15;96352.00;;;18.39;59.80
31357;BME280;60001;48.404;11.738;2023-06-26T03:05:48;96350.91;;;18.40;59.76
31357;BME280;60001;48.404;11.738;2023-06-26T03:07:19;96348.44;;;18.43;60.21
31357;BME280;60001;48.404;11.738;2023-06-26T03:08:54;96351.50;;;18.50;59.86
31357;BME280;60001;48.404;11.738;2023-06-26T03:10:26;96346.94;;;18.51;60.12
31357;BME280;60001;48.404;11.738;2023-06-26T03:11:58;96360.09;;;18.61;59.36
31357;BME280;60001;48.404;11.738;2023-06-26T03:13:29;96347.00;;;18.73;58.91
31357;BME280;60001;48.404;11.738;2023-06-26T03:15:03;96337.72;;;18.71;58.82
31357;BME280;60001;48.404;11.738;2023-06-26T03:16:34;96350.38;;;18.65;59.36
31357;BME280;60001;48.404;11.738;2023-06-26T03:18:05;96343.44;;;18.64;59.99
31357;BME280;60001;48.404;11.738;2023-06-26T03:19:37;96347.13;;;18.54;60.03
31357;BME280;60001;48.404;11.738;2023-06-26T03:21:09;96347.13;;;18.54;59.90
31357;BME280;60001;48.404;11.738;2023-06-26T03:22:41;96343.44;;;18.64;58.93
31357;BME280;60001;48.404;11.738;2023-06-26T03:24:11;96349.78;;;18.68;58.76
31357;BME280;60001;48.404;11.738;2023-06-26T03:25:43;96348.22;;;18.53;59.58
31357;BME280;60001;48.404;11.738;2023-06-26T03:27:15;96342.59;;;18.41;59.30
31357;BME280;60001;48.404;11.738;2023-06-26T03:28:46;96352.91;;;18.20;61.46
31357;BME280;60001;48.404;11.738;2023-06-26T03:30:19;96354.56;;;18.71;59.95
31357;BME280;60001;48.404;11.738;2023-06-26T03:31:51;96358.63;;;18.91;58.14
31357;BME280;60001;48.404;11.738;2023-06-26T03:33:23;96350.97;;;18.98;57.81
31357;BME280;60001;48.404;11.738;2023-06-26T03:34:55;96351.00;;;18.84;57.19
31357;BME280;60001;48.404;11.738;2023-06-26T03:36:26;96353.69;;;18.84;57.95
31357;BME280;60001;48.404;11.738;2023-06-26T03:37:58;96333.19;;;18.44;58.27
31357;BME280;60001;48.404;11.738;2023-06-26T03:39:30;96361.06;;;18.65;58.05
31357;BME280;60001;48.404;11.738;2023-06-26T03:41:02;96360.97;;;18.56;58.39
31357;BME280;60001;48.404;11.738;2023-06-26T03:42:34;96358.31;;;18.56;58.68
31357;BME280;60001;48.404;11.738;2023-06-26T03:44:06;96361.50;;;18.45;58.41
31357;BME280;60001;48.404;11.738;2023-06-26T03:45:38;96365.34;;;18.52;59.09
31357;BME280;60001;48.404;11.738;2023-06-26T03:47:10;96360.38;;;18.73;57.90
31357;BME280;60001;48.404;11.738;2023-06-26T03:48:41;96360.38;;;18.73;57.52
31357;BME280;60001;48.404;11.738;2023-06-26T03:50:16;96365.25;;;18.71;58.91
31357;BME280;60001;48.404;11.738;2023-06-26T03:51:49;96358.75;;;18.50;58.66
31357;BME280;60001;48.404;11.738;2023-06-26T03:53:21;96361.47;;;18.72;57.86
31357;BME280;60001;48.404;11.738;2023-06-26T03:54:52;96351.31;;;18.83;57.66
31357;BME280;60001;48.404;11.738;2023-06-26T03:56:24;96355.94;;;18.69;57.83
31357;BME280;60001;48.404;11.738;2023-06-26T03:57:56;96349.00;;;18.68;58.49
31357;BME280;60001;48.404;11.738;2023-06-26T03:59:27;96358.88;;;18.81;58.40
31357;BME280;60001;48.404;11.738;2023-06-26T04:01:01;96352.38;;;18.96;58.71
31357;BME280;60001;48.404;11.738;2023-06-26T04:02:32;96352.63;;;18.85;58.97
31357;BME280;60001;48.404;11.738;2023-06-26T04:04:04;96359.44;;;18.92;59.56
31357;BME280;60001;48.404;11.738;2023-06-26T04:05:36;96350.31;;;18.93;59.54
31357;BME280;60001;48.404;11.738;2023-06-26T04:07:08;96358.88;;;19.03;59.51
31357;BME280;60001;48.404;11.738;2023-06-26T04:08:38;96361.19;;;18.96;59.17
31357;BME280;60001;48.404;11.738;2023-06-26T04:10:10;96367.94;;;18.94;59.39
31357;BME280;60001;48.404;11.738;2023-06-26T04:11:42;96364.53;;;19.02;59.33
31357;BME280;60001;48.404;11.738;2023-06-26T04:13:14;96365.63;;;19.01;59.34
31357;BME280;60001;48.404;11.738;2023-06-26T04:14:46;96368.53;;;18.90;59.27
31357;BME280;60001;48.404;11.738;2023-06-26T04:16:20;96369.56;;;18.81;60.20
31357;BME280;60001;48.404;11.738;2023-06-26T04:17:51;96370.59;;;18.71;60.42
31357;BME280;60001;48.404;11.738;2023-06-26T04:19:23;96353.94;;;18.74;59.58
31357;BME280;60001;48.404;11.738;2023-06-26T04:21:07;96363.75;;;19.01;58.92
31357;BME280;60001;48.404;11.738;2023-06-26T04:22:39;96368.31;;;19.01;58.59
31357;BME280;60001;48.404;11.738;2023-06-26T04:24:11;96367.28;;;19.10;57.97
31357;BME280;60001;48.404;11.738;2023-06-26T04:25:43;96364.84;;;19.00;58.57
31357;BME280;60001;48.404;11.738;2023-06-26T04:27:14;96359.44;;;19.14;58.76
31357;BME280;60001;48.404;11.738;2023-06-26T04:28:45;96363.66;;;19.06;58.69
31357;BME280;60001;48.404;11.738;2023-06-26T04:30:17;96363.81;;;19.10;57.60
31357;BME280;60001;48.404;11.738;2023-06-26T04:31:50;96344.34;;;18.96;57.75
31357;BME280;60001;48.404;11.738;2023-06-26T04:33:22;96354.69;;;19.11;58.42
31357;BME280;60001;48.404;11.738;2023-06-26T04:34:54;96367.47;;;19.14;58.01
31357;BME280;60001;48.404;11.738;2023-06-26T04:36:25;96359.59;;;19.17;58.28
31357;BME280;60001;48.404;11.738;2023-06-26T04:37:58;96360.72;;;19.16;56.73
31357;BME280;60001;48.404;11.738;2023-06-26T04:39:33;96364.53;;;19.24;58.12
31357;BME280;60001;48.404;11.738;2023-06-26T04:41:06;96364.09;;;19.31;58.21
31357;BME280;60001;48.404;11.738;2023-06-26T04:42:38;96358.88;;;19.26;58.83
31357;BME280;60001;48.404;11.738;2023-06-26T04:44:10;96365.81;;;19.27;58.15
31357;BME280;60001;48.404;11.738;2023-06-26T04:45:41;96363.69;;;19.37;57.21
31357;BME280;60001;48.404;11.738;2023-06-26T04:47:15;96367.69;;;19.49;57.96
31357;BME280;60001;48.404;11.738;2023-06-26T04:48:47;96363.28;;;19.53;57.67
31357;BME280;60001;48.404;11.738;2023-06-26T04:50:17;96362.56;;;19.38;57.63
31357;BME280;60001;48.404;11.738;2023-06-26T04:51:49;96355.16;;;19.58;58.08
31357;BME280;60001;48.404;11.738;2023-06-26T04:53:21;96361.50;;;19.62;57.30
31357;BME280;60001;48.404;11.738;2023-06-26T04:54:54;96360.97;;;19.82;57.14
31357;BME280;60001;48.404;11.738;2023-06-26T04:56:26;96356.06;;;19.84;57.28
31357;BME280;60001;48.404;11.738;2023-06-26T04:57:57;96353.84;;;19.78;55.47
31357;BME280;60001;48.404;11.738;2023-06-26T04:59:29;96357.31;;;19.78;56.74
31357;BME280;60001;48.404;11.738;2023-06-26T05:01:01;96357.44;;;19.73;56.98
31357;BME280;60001;48.404;11.738;2023-06-26T05:02:34;96361.09;;;19.77;57.56
31357;BME280;60001;48.404;11.738;2023-06-26T05:04:06;96358.09;;;19.79;57.51
31357;BME280;60001;48.404;11.738;2023-06-26T05:05:38;96365.22;;;19.83;58.18
31357;BME280;60001;48.404;11.738;2023-06-26T05:07:10;96367.28;;;19.95;57.88
31357;BME280;60001;48.404;11.738;2023-06-26T05:08:42;96363.69;;;19.99;58.51
31357;BME280;60001;48.404;11.738;2023-06-26T05:10:14;96356.75;;;19.98;57.38
31357;BME280;60001;48.404;11.738;2023-06-26T05:11:46;96358.34;;;20.08;57.20
31357;BME280;60001;48.404;11.738;2023-06-26T05:13:17;96361.22;;;20.12;57.64
31357;BME280;60001;48.404;11.738;2023-06-26T05:14:50;96363.44;;;20.18;58.60
31357;BME280;60001;48.404;11.738;2023-06-26T05:16:22;96347.69;;;20.17;57.55
31357;BME280;60001;48.404;11.738;2023-06-26T05:17:55;96361.25;;;20.29;55.15
31357;BME280;60001;48.404;11.738;2023-06-26T05:19:26;96365.97;;;20.23;55.36
31357;BME280;60001;48.404;11.738;2023-06-26T05:20:59;96359.47;;;20.16;56.67
31357;BME280;60001;48.404;11.738;2023-06-26T05:22:32;96356.31;;;20.14;56.74
31357;BME280;60001;48.404;11.738;2023-06-26T05:24:07;96357.00;;;20.28;56.99
31357;BME280;60001;48.404;11.738;2023-06-26T05:25:40;96361.44;;;20.33;57.40
31357;BME280;60001;48.404;11.738;2023-06-26T05:27:13;96354.97;;;20.42;57.22
31357;BME280;60001;48.404;11.738;2023-06-26T05:28:52;96362.75;;;20.52;55.16
31357;BME280;60001;48.404;11.738;2023-06-26T05:30:25;96360.53;;;20.46;55.23
31357;BME280;60001;48.404;11.738;2023-06-26T05:31:58;96359.91;;;20.49;55.42
31357;BME280;60001;48.404;11.738;2023-06-26T05:33:35;96353.94;;;20.52;56.41
31357;BME280;60001;48.404;11.738;2023-06-26T05:35:08;96363.22;;;20.55;56.04
31357;BME280;60001;48.404;11.738;2023-06-26T05:36:41;96350.28;;;20.65;55.69
31357;BME280;60001;48.404;11.738;2023-06-26T05:38:14;96366.88;;;20.85;55.42
31357;BME280;60001;48.404;11.738;2023-06-26T05:39:46;96368.28;;;20.91;56.73
31357;BME280;60001;48.404;11.738;2023-06-26T05:41:18;96371.16;;;21.03;57.05
31357;BME280;60001;48.404;11.738;2023-06-26T05:42:51;96363.09;;;20.94;55.63
31357;BME280;60001;48.404;11.738;2023-06-26T05:44:23;96362.91;;;20.99;55.20
31357;BME280;60001;48.404;11.738;2023-06-26T05:45:55;96360.88;;;21.05;55.53
31357;BME280;60001;48.404;11.738;2023-06-26T05:47:27;96362.16;;;21.07;55.58
31357;BME280;60001;48.404;11.738;2023-06-26T05:49:00;96357.72;;;21.12;55.62
31357;BME280;60001;48.404;11.738;2023-06-26T05:50:33;96364.03;;;21.16;54.70
31357;BME280;60001;48.404;11.738;2023-06-26T05:52:06;96366.84;;;21.19;55.07
31357;BME280;60001;48.404;11.738;2023-06-26T05:53:38;96361.81;;;21.18;54.29
31357;BME280;60001;48.404;11.738;2023-06-26T05:55:12;96368.13;;;21.04;53.47
31357;BME280;60001;48.404;11.738;2023-06-26T05:56:45;96364.50;;;21.09;53.47
31357;BME280;60001;48.404;11.738;2023-06-26T05:58:20;96369.25;;;20.95;52.80
31357;BME280;60001;48.404;11.738;2023-06-26T05:59:53;96364.81;;;20.90;53.15
31357;BME280;60001;48.404;11.738;2023-06-26T06:01:25;96367.84;;;20.80;53.10
31357;BME280;60001;48.404;11.738;2023-06-26T06:02:57;96368.28;;;20.91;53.31
31357;BME280;60001;48.404;11.738;2023-06-26T06:04:30;96346.97;;;20.86;53.06
31357;BME280;60001;48.404;11.738;2023-06-26T06:06:02;96361.84;;;21.00;52.57
31357;BME280;60001;48.404;11.738;2023-06-26T06:07:35;96355.50;;;21.05;52.75
31357;BME280;60001;48.404;11.738;2023-06-26T06:09:07;96356.00;;;21.07;52.21
31357;BME280;60001;48.404;11.738;2023-06-26T06:10:38;96360.25;;;21.17;52.73
31357;BME280;60001;48.404;11.738;2023-06-26T06:12:10;96361.97;;;21.13;52.16
31357;BME280;60001;48.404;11.738;2023-06-26T06:13:42;96370.50;;;21.23;52.67
31357;BME280;60001;48.404;11.738;2023-06-26T06:15:14;96361.84;;;21.35;53.27
31357;BME280;60001;48.404;11.738;2023-06-26T06:16:46;96370.47;;;21.41;52.69
31357;BME280;60001;48.404;11.738;2023-06-26T06:18:17;96362.91;;;21.51;53.54
31357;BME280;60001;48.404;11.738;2023-06-26T06:19:50;96368.22;;;21.60;50.58
31357;BME280;60001;48.404;11.738;2023-06-26T06:21:22;96357.03;;;21.58;50.78
31357;BME280;60001;48.404;11.738;2023-06-26T06:22:54;96356.22;;;21.66;51.33
31357;BME280;60001;48.404;11.738;2023-06-26T06:24:25;96351.00;;;21.70;50.74
31357;BME280;60001;48.404;11.738;2023-06-26T06:25:57;96353.69;;;21.70;49.76
31357;BME280;60001;48.404;11.738;2023-06-26T06:27:29;96351.13;;;21.73;50.50
31357;BME280;60001;48.404;11.738;2023-06-26T06:29:01;96351.44;;;21.72;50.62
31357;BME280;60001;48.404;11.738;2023-06-26T06:30:33;96344.47;;;21.79;50.67
31357;BME280;60001;48.404;11.738;2023-06-26T06:32:05;96345.69;;;21.91;50.74
31357;BME280;60001;48.404;11.738;2023-06-26T06:33:37;96346.75;;;21.98;50.95
31357;BME280;60001;48.404;11.738;2023-06-26T06:35:10;96352.94;;;21.99;51.08
31357;BME280;60001;48.404;11.738;2023-06-26T06:36:42;96354.06;;;21.89;50.60
31357;BME280;60001;48.404;11.738;2023-06-26T06:38:14;96348.06;;;21.92;51.08
31357;BME280;60001;48.404;11.738;2023-06-26T06:39:45;96349.66;;;21.84;51.10
31357;BME280;60001;48.404;11.738;2023-06-26T06:41:17;96352.00;;;21.95;51.00
31357;BME280;60001;48.404;11.738;2023-06-26T06:42:49;96358.44;;;22.02;51.72
31357;BME280;60001;48.404;11.738;2023-06-26T06:44:21;96357.03;;;22.05;51.53
31357;BME280;60001;48.404;11.738;2023-06-26T06:45:53;96363.34;;;22.00;51.18
31357;BME280;60001;48.404;11.738;2023-06-26T06:47:24;96359.81;;;22.17;51.54
31357;BME280;60001;48.404;11.738;2023-06-26T06:48:56;96362.94;;;22.28;51.15
31357;BME280;60001;48.404;11.738;2023-06-26T06:50:29;96350.72;;;22.30;51.77
31357;BME280;60001;48.404;11.738;2023-06-26T06:52:01;96354.81;;;22.36;51.50
31357;BME280;60001;48.404;11.738;2023-06-26T06:53:33;96362.69;;;22.41;51.70
31357;BME280;60001;48.404;11.738;2023-06-26T06:55:05;96364.81;;;22.57;51.71
31357;BME280;60001;48.404;11.738;2023-06-26T06:56:39;96364.09;;;22.68;51.53
31357;BME280;60001;48.404;11.738;2023-06-26T06:58:10;96354.38;;;22.76;50.97
31357;BME280;60001;48.404;11.738;2023-06-26T06:59:42;96358.31;;;22.79;51.27
31357;BME280;60001;48.404;11.738;2023-06-26T07:01:14;96353.88;;;22.83;50.23
31357;BME280;60001;48.404;11.738;2023-06-26T07:02:46;96357.28;;;22.92;50.63
31357;BME280;60001;48.404;11.738;2023-06-26T07:04:17;96350.94;;;22.96;51.04
31357;BME280;60001;48.404;11.738;2023-06-26T07:05:51;96355.66;;;23.00;50.25
31357;BME280;60001;48.404;11.738;2023-06-26T07:07:23;96353.34;;;23.10;51.04
31357;BME280;60001;48.404;11.738;2023-06-26T07:08:54;96357.28;;;23.13;50.96
31357;BME280;60001;48.404;11.738;2023-06-26T07:10:26;96354.00;;;23.07;50.09
31357;BME280;60001;48.404;11.738;2023-06-26T07:11:58;96351.34;;;23.19;49.97
31357;BME280;60001;48.404;11.738;2023-06-26T07:13:29;96354.38;;;23.18;50.04
31357;BME280;60001;48.404;11.738;2023-06-26T07:15:01;96352.47;;;23.18;50.15
31357;BME280;60001;48.404;11.738;2023-06-26T07:16:33;96348.56;;;23.28;49.85
31357;BME280;60001;48.404;11.738;2023-06-26T07:18:04;96352.38;;;23.27;49.63
31357;BME280;60001;48.404;11.738;2023-06-26T07:19:36;96347.78;;;23.28;49.73
31357;BME280;60001;48.404;11.738;2023-06-26T07:21:09;96352.06;;;23.29;49.46
31357;BME280;60001;48.404;11.738;2023-06-26T07:22:42;96350.09;;;23.38;49.69
31357;BME280;60001;48.404;11.738;2023-06-26T07:24:15;96350.09;;;23.38;49.10
31357;BME280;60001;48.404;11.738;2023-06-26T07:25:46;96353.59;;;23.17;49.57
31357;BME280;60001;48.404;11.738;2023-06-26T07:27:20;96343.88;;;23.25;49.68
31357;BME280;60001;48.404;11.738;2023-06-26T07:28:52;96355.38;;;23.46;49.83
31357;BME280;60001;48.404;11.738;2023-06-26T07:30:25;96347.97;;;23.56;49.73
31357;BME280;60001;48.404;11.738;2023-06-26T07:31:57;96338.88;;;23.48;48.60
31357;BME280;60001;48.404;11.738;2023-06-26T07:33:29;96347.19;;;23.55;48.47
31357;BME280;60001;48.404;11.738;2023-06-26T07:35:00;96345.19;;;23.52;47.99
31357;BME280;60001;48.404;11.738;2023-06-26T07:36:33;96343.06;;;23.58;48.38
31357;BME280;60001;48.404;11.738;2023-06-26T07:38:05;96352.09;;;23.74;48.23
31357;BME280;60001;48.404;11.738;2023-06-26T07:39:39;96342.53;;;23.76;48.62
31357;BME280;60001;48.404;11.738;2023-06-26T07:41:11;96343.56;;;23.84;47.73
31357;BME280;60001;48.404;11.738;2023-06-26T07:42:43;96325.47;;;23.72;47.69
31357;BME280;60001;48.404;11.738;2023-06-26T07:44:14;96343.56;;;23.96;47.99
31357;BME280;60001;48.404;11.738;2023-06-26T07:45:46;96344.13;;;24.02;47.11
31357;BME280;60001;48.404;11.738;2023-06-26T07:47:18;96351.34;;;24.10;46.91
31357;BME280;60001;48.404;11.738;2023-06-26T07:48:50;96347.63;;;24.15;46.90
31357;BME280;60001;48.404;11.738;2023-06-26T07:50:22;96343.91;;;24.19;47.09
31357;BME280;60001;48.404;11.738;2023-06-26T07:51:55;96347.16;;;24.25;46.42
31357;BME280;60001;48.404;11.738;2023-06-26T07:53:27;96350.44;;;24.30;45.97
31357;BME280;60001;48.404;11.738;2023-06-26T07:54:59;96347.72;;;24.30;45.26
31357;BME280;60001;48.404;11.738;2023-06-26T07:56:31;96343.81;;;24.28;45.50
31357;BME280;60001;48.404;11.738;2023-06-26T07:58:02;96353.28;;;24.34;45.75
31357;BME280;60001;48.404;11.738;2023-06-26T07:59:34;96346.84;;;24.39;46.12
31357;BME280;60001;48.404;11.738;2023-06-26T08:01:06;96349.53;;;24.39;46.06
31357;BME280;60001;48.404;11.738;2023-06-26T08:02:38;96351.31;;;24.47;44.68
31357;BME280;60001;48.404;11.738;2023-06-26T08:04:10;96351.31;;;24.47;44.84